Time;durP1;ratioP1;P1;durP2;ratioP2;P2;SDS_P1;SDS_P2;PMS_P1;PMS_P2;Temp;Humidity;BMP_temperature;BMP_pressure;BME280_temperature;BME280_humidity;BME280_pressure;Samples;Min_cycle;Max_cycle;Signal;HPM_P1;HPM_P2
2022/12/07 00:00:35;;;;;;;4.53;3.03;;;;;;;0.73;100.00;100522.31;4976944;28;20588;-70
2022/12/07 00:03:02;;;;;;;3.53;2.33;;;;;;;0.74;100.00;100524.03;4971843;28;20532;-70
2022/12/07 00:05:30;;;;;;;2.90;2.37;;;;;;;0.76;100.00;100519.78;4970223;28;20211;-71
2022/12/07 00:07:57;;;;;;;4.60;2.90;;;;;;;0.77;100.00;100518.06;4970730;28;20297;-71
2022/12/07 00:10:23;;;;;;;5.67;3.13;;;;;;;0.78;100.00;100515.53;4970129;28;20543;-71
2022/12/07 00:12:49;;;;;;;5.03;3.27;;;;;;;0.81;100.00;100509.53;4970564;28;20274;-71
2022/12/07 00:15:16;;;;;;;4.57;3.00;;;;;;;0.81;100.00;100510.44;4960224;28;20574;-71
2022/12/07 00:17:44;;;;;;;5.20;3.00;;;;;;;0.83;100.00;100507.88;4972802;28;20209;-71
2022/12/07 00:20:11;;;;;;;4.43;2.80;;;;;;;0.84;100.00;100494.19;4953830;28;20194;-71
2022/12/07 00:22:37;;;;;;;5.03;3.23;;;;;;;0.85;100.00;100496.78;4959540;28;20639;-71
2022/12/07 00:25:05;;;;;;;5.43;3.23;;;;;;;0.87;100.00;100496.81;4973812;28;20892;-71
2022/12/07 00:27:31;;;;;;;3.67;2.63;;;;;;;0.89;100.00;100498.53;4963563;28;20216;-70
2022/12/07 00:29:57;;;;;;;5.17;3.50;;;;;;;0.90;100.00;100495.13;4977638;28;20786;-71
2022/12/07 00:32:24;;;;;;;3.93;3.00;;;;;;;0.91;100.00;100494.25;4976884;28;20198;-70
2022/12/07 00:34:51;;;;;;;5.47;3.17;;;;;;;0.93;100.00;100489.16;4958743;28;20210;-71
2022/12/07 00:37:18;;;;;;;7.10;4.00;;;;;;;0.96;100.00;100483.22;4977008;28;20453;-71
2022/12/07 00:39:46;;;;;;;6.30;3.13;;;;;;;0.96;100.00;100483.22;4972281;28;20597;-70
2022/12/07 00:42:12;;;;;;;5.23;3.37;;;;;;;0.98;100.00;100478.94;4979505;28;20415;-71
2022/12/07 00:44:39;;;;;;;6.00;3.50;;;;;;;0.98;100.00;100473.81;4976648;28;20211;-71
2022/12/07 00:47:05;;;;;;;6.90;3.80;;;;;;;1.01;100.00;100473.84;4975918;28;20566;-71
2022/12/07 00:49:31;;;;;;;6.13;3.10;;;;;;;1.02;100.00;100468.72;4978632;28;20684;-71
2022/12/07 00:51:59;;;;;;;5.53;3.60;;;;;;;1.05;100.00;100478.16;4974067;28;20210;-71
2022/12/07 00:54:25;;;;;;;7.57;3.63;;;;;;;1.07;100.00;100468.75;4975518;28;20688;-71
2022/12/07 00:56:52;;;;;;;5.77;3.60;;;;;;;1.05;100.00;100473.88;4975130;28;20241;-71
2022/12/07 00:59:18;;;;;;;4.53;3.27;;;;;;;1.06;100.00;100477.34;4976107;28;20217;-70
2022/12/07 01:01:44;;;;;;;7.47;3.53;;;;;;;1.04;100.00;100477.31;4975933;28;20208;-70
2022/12/07 01:04:11;;;;;;;8.27;4.10;;;;;;;1.04;100.00;100482.44;4977214;28;20206;-72
2022/12/07 01:06:37;;;;;;;7.27;3.87;;;;;;;1.03;100.00;100477.28;4978308;28;20205;-71
2022/12/07 01:09:06;;;;;;;7.20;3.97;;;;;;;1.01;100.00;100484.13;4977436;28;20217;-71
2022/12/07 01:11:33;;;;;;;6.77;3.40;;;;;;;1.01;100.00;100484.97;4979986;28;20628;-71
2022/12/07 01:14:00;;;;;;;5.87;3.73;;;;;;;1.01;100.00;100492.69;4975076;28;20208;-71
2022/12/07 01:16:29;;;;;;;5.80;3.50;;;;;;;0.97;100.00;100484.91;4978359;28;20204;-71
2022/12/07 01:18:58;;;;;;;5.33;3.40;;;;;;;0.93;100.00;100484.03;4978056;28;20217;-71
2022/12/07 01:21:26;;;;;;;6.97;4.00;;;;;;;0.89;100.00;100482.28;4974183;28;20201;-71
2022/12/07 01:23:53;;;;;;;6.57;3.63;;;;;;;0.90;100.00;100481.44;4974183;28;20221;-71
2022/12/07 01:26:23;;;;;;;6.90;4.07;;;;;;;0.84;100.00;100487.34;4960283;28;20674;-70
2022/12/07 01:28:49;;;;;;;7.17;3.50;;;;;;;0.81;100.00;100474.50;4971208;28;20213;-70
2022/12/07 01:31:18;;;;;;;7.97;4.60;;;;;;;0.82;100.00;100472.78;4983960;28;20413;-71
2022/12/07 01:33:47;;;;;;;8.73;4.60;;;;;;;0.79;100.00;100478.72;4970811;28;20202;-69
2022/12/07 01:36:16;;;;;;;7.37;4.07;;;;;;;0.78;100.00;100476.16;4994006;28;20201;-69
2022/12/07 01:38:44;;;;;;;5.67;3.60;;;;;;;0.75;100.00;100477.84;4987804;28;20214;-71
2022/12/07 01:41:12;;;;;;;9.03;4.10;;;;;;;0.72;100.00;100475.25;4978273;28;20210;-70
2022/12/07 01:44:15;;;;;;;5.97;3.23;;;;;;;0.67;100.00;100476.91;4969490;28;20214;-71
2022/12/07 01:46:43;;;;;;;8.10;3.97;;;;;;;0.68;100.00;100475.19;4977896;28;20562;-71
2022/12/07 01:49:15;;;;;;;6.47;3.40;;;;;;;0.65;100.00;100468.31;4974905;28;20227;-70
2022/12/07 01:51:44;;;;;;;7.13;4.03;;;;;;;0.62;100.00;100477.69;4971101;28;20205;-71
2022/12/07 01:54:13;;;;;;;7.97;4.50;;;;;;;0.61;100.00;100469.13;4977712;28;20564;-71
2022/12/07 01:56:42;;;;;;;10.17;4.50;;;;;;;0.60;100.00;100464.84;4984613;28;20582;-71
2022/12/07 01:59:09;;;;;;;7.97;3.80;;;;;;;0.59;100.00;100468.25;4973461;28;20593;-71
2022/12/07 02:01:36;;;;;;;5.83;3.40;;;;;;;0.59;100.00;100467.38;4977157;28;20263;-71
2022/12/07 02:04:03;;;;;;;6.87;4.47;;;;;;;0.59;100.00;100468.25;4976231;28;20221;-71
2022/12/07 02:06:30;;;;;;;7.30;4.37;;;;;;;0.60;100.00;100467.41;4973496;28;20206;-71
2022/12/07 02:08:57;;;;;;;7.90;3.87;;;;;;;0.63;100.00;100464.84;4973734;28;20225;-70
2022/12/07 02:11:23;;;;;;;5.77;3.50;;;;;;;0.62;100.00;100465.72;4976320;28;20201;-71
2022/12/07 02:13:50;;;;;;;11.93;4.27;;;;;;;0.61;100.00;100463.13;4972885;28;20701;-71
2022/12/07 02:16:27;;;;;;;9.07;4.70;;;;;;;0.60;100.00;100467.41;4970362;28;20206;-70
2022/12/07 02:19:14;;;;;;;9.17;4.73;;;;;;;0.60;100.00;100472.53;4971417;28;20309;-71
2022/12/07 02:21:46;;;;;;;5.37;3.40;;;;;;;0.56;100.00;100475.88;4977050;28;20658;-70
2022/12/07 02:24:23;;;;;;;7.10;3.67;;;;;;;0.38;100.00;100486.78;4975006;28;20311;-71
2022/12/07 02:27:28;;;;;;;7.23;3.97;;;;;;;0.28;100.00;100473.00;4968964;28;20206;-70
2022/12/07 02:30:01;;;;;;;7.10;4.23;;;;;;;0.11;100.00;100485.56;4971754;28;20812;-71
2022/12/07 02:32:39;;;;;;;5.13;3.20;;;;;;;-0.03;100.00;100487.06;4974933;28;20205;-71
2022/12/07 02:35:09;;;;;;;5.53;3.67;;;;;;;-0.13;100.00;100485.22;4974521;28;20208;-70
2022/12/07 02:37:44;;;;;;;4.67;3.73;;;;;;;-0.24;100.00;100491.03;4971704;28;20201;-71
2022/12/07 02:40:17;;;;;;;4.47;2.90;;;;;;;-0.33;100.00;100496.00;4974741;28;20272;-71
2022/12/07 02:42:49;;;;;;;6.10;3.50;;;;;;;-0.40;100.00;100486.50;4976573;28;20364;-71
2022/12/07 02:45:21;;;;;;;5.27;3.17;;;;;;;-0.47;100.00;100484.69;4970579;28;20209;-71
2022/12/07 02:47:51;;;;;;;6.07;3.67;;;;;;;-0.54;100.00;100485.41;4975580;28;20238;-70
2022/12/07 02:50:19;;;;;;;5.80;3.30;;;;;;;-0.63;100.00;100476.72;4976038;28;20220;-71
2022/12/07 02:52:45;;;;;;;5.70;3.53;;;;;;;-0.70;100.00;100476.59;4972080;28;20578;-71
2022/12/07 02:55:13;;;;;;;6.57;3.67;;;;;;;-0.77;100.00;100473.06;4974226;28;20209;-71
2022/12/07 02:57:54;;;;;;;4.03;3.00;;;;;;;-0.82;100.00;100464.44;4978799;28;20942;-71
2022/12/07 03:00:22;;;;;;;5.60;2.93;;;;;;;-0.87;100.00;100463.50;4987624;28;20201;-70
2022/12/07 03:02:56;;;;;;;4.13;3.00;;;;;;;-0.85;100.00;100461.81;4973709;28;20198;-71
2022/12/07 03:05:45;;;;;;;4.60;2.97;;;;;;;-0.88;100.00;100467.78;4975909;28;20201;-71
2022/12/07 03:08:16;;;;;;;4.63;3.23;;;;;;;-0.85;100.00;100459.25;4980760;28;20320;-71
2022/12/07 03:10:51;;;;;;;4.53;2.77;;;;;;;-0.90;100.00;100448.09;4975365;28;20554;-71
2022/12/07 03:13:25;;;;;;;5.57;3.23;;;;;;;-0.96;100.00;100448.84;4974225;28;20197;-71
2022/12/07 03:15:59;;;;;;;4.37;3.30;;;;;;;-1.05;100.00;100457.22;4977186;28;20208;-71
2022/12/07 03:18:30;;;;;;;4.03;3.53;;;;;;;-1.18;100.00;100452.69;4971669;28;20241;-71
2022/12/07 03:21:03;;;;;;;7.23;3.63;;;;;;;-1.27;100.00;100452.53;4974367;28;20204;-71
2022/12/07 03:23:33;;;;;;;6.27;3.67;;;;;;;-1.35;100.00;100444.72;4978467;28;20217;-71
2022/12/07 03:26:02;;;;;;;4.73;3.17;;;;;;;-1.43;100.00;100448.81;4969482;28;20220;-71
2022/12/07 03:28:34;;;;;;;6.93;3.60;;;;;;;-1.50;100.00;100444.41;4959059;28;20237;-71
2022/12/07 03:31:06;;;;;;;6.40;3.73;;;;;;;-1.54;100.00;100446.03;4976566;28;20197;-71
2022/12/07 03:33:37;;;;;;;7.30;3.80;;;;;;;-1.58;100.00;100447.66;4972484;28;20209;-71
2022/12/07 03:36:07;;;;;;;6.27;3.90;;;;;;;-1.63;100.00;100433.91;4970022;28;20576;-72
2022/12/07 03:38:39;;;;;;;6.97;3.83;;;;;;;-1.59;100.00;100439.97;4973068;28;20226;-71
2022/12/07 03:41:09;;;;;;;6.77;3.77;;;;;;;-1.53;100.00;100424.72;4974102;28;20201;-71
2022/12/07 03:43:37;;;;;;;5.60;3.63;;;;;;;-1.48;100.00;100429.94;4983252;28;20407;-71
2022/12/07 03:46:11;;;;;;;7.90;3.83;;;;;;;-1.43;100.00;100429.19;4970082;28;20205;-71
2022/12/07 03:48:47;;;;;;;6.23;3.90;;;;;;;-1.37;100.00;100429.31;4966136;28;20351;-71
2022/12/07 03:51:20;;;;;;;5.73;4.10;;;;;;;-1.31;100.00;100414.94;4971526;28;20744;-71
2022/12/07 03:53:53;;;;;;;7.27;4.20;;;;;;;-1.27;100.00;100411.59;4979848;28;20204;-69
2022/12/07 03:56:21;;;;;;;7.70;4.33;;;;;;;-1.22;100.00;100404.88;5038996;28;20300;-71
2022/12/07 03:58:48;;;;;;;8.00;4.40;;;;;;;-1.16;100.00;100405.00;4976667;28;20278;-71
2022/12/07 04:01:16;;;;;;;10.10;4.27;;;;;;;-1.13;100.00;100396.50;4966198;28;20704;-71
2022/12/07 04:03:42;;;;;;;6.00;3.63;;;;;;;-1.10;100.00;100389.72;4977245;28;21025;-71
2022/12/07 04:06:08;;;;;;;7.90;4.40;;;;;;;-1.08;100.00;100395.72;4976434;28;20598;-71
2022/12/07 04:08:35;;;;;;;8.70;4.77;;;;;;;-1.09;100.00;100381.22;4965055;28;20244;-70
2022/12/07 04:11:02;;;;;;;7.60;4.00;;;;;;;-1.05;100.00;100385.56;4980550;28;20197;-70
2022/12/07 04:13:28;;;;;;;11.07;5.53;;;;;;;-1.05;100.00;100375.31;4976765;28;20210;-71
2022/12/07 04:15:54;;;;;;;8.97;5.13;;;;;;;-1.06;100.00;100363.34;4975288;28;20198;-71
2022/12/07 04:18:22;;;;;;;7.93;4.70;;;;;;;-1.06;100.00;100367.63;4975826;28;20228;-71
2022/12/07 04:20:49;;;;;;;10.80;4.97;;;;;;;-1.09;100.00;100360.75;4976344;28;20217;-71
2022/12/07 04:23:15;;;;;;;7.70;4.33;;;;;;;-1.10;100.00;100359.03;4974116;28;20205;-71
2022/12/07 04:25:41;;;;;;;12.17;5.20;;;;;;;-1.11;100.00;100359.84;4972391;28;20575;-70
2022/12/07 04:28:08;;;;;;;14.03;5.13;;;;;;;-1.12;100.00;100357.28;4978126;28;20222;-71
2022/12/07 04:30:34;;;;;;;8.97;5.33;;;;;;;-1.14;100.00;100349.59;4974349;28;20674;-71
2022/12/07 04:33:00;;;;;;;9.80;5.23;;;;;;;-1.16;100.00;100354.66;4974980;28;20204;-71
2022/12/07 04:35:28;;;;;;;9.97;5.37;;;;;;;-1.17;100.00;100354.63;4972313;28;20202;-71
2022/12/07 04:37:54;;;;;;;8.13;4.83;;;;;;;-1.17;100.00;100352.94;4965451;28;20220;-71
2022/12/07 04:40:21;;;;;;;10.53;5.10;;;;;;;-1.20;100.00;100352.03;4980846;28;20206;-71
2022/12/07 04:42:47;;;;;;;9.23;4.97;;;;;;;-1.18;100.00;100346.09;4974732;28;20197;-70
2022/12/07 04:45:13;;;;;;;11.83;5.40;;;;;;;-1.18;100.00;100352.91;4972596;28;20600;-71
2022/12/07 04:47:40;;;;;;;10.53;6.27;;;;;;;-1.17;100.00;100352.06;4972894;28;20473;-71
2022/12/07 04:50:07;;;;;;;11.63;5.43;;;;;;;-1.18;100.00;100340.09;4969813;28;20206;-71
2022/12/07 04:52:35;;;;;;;9.87;5.77;;;;;;;-1.20;100.00;100334.09;4948208;28;20222;-72
2022/12/07 04:55:01;;;;;;;12.17;6.27;;;;;;;-1.19;100.00;100340.97;4948054;28;20190;-72
2022/12/07 04:57:28;;;;;;;11.33;6.80;;;;;;;-1.21;100.00;100332.41;4955060;28;20199;-72
2022/12/07 04:59:54;;;;;;;11.20;6.03;;;;;;;-1.22;100.00;100331.53;4939388;28;20231;-72
2022/12/07 05:02:21;;;;;;;10.47;5.77;;;;;;;-1.23;100.00;100334.06;4937278;28;20286;-72
2022/12/07 05:04:47;;;;;;;12.20;6.37;;;;;;;-1.20;100.00;100331.56;4934342;28;20777;-72
2022/12/07 05:07:13;;;;;;;13.77;6.50;;;;;;;-1.17;100.00;100326.50;4936164;28;20965;-72
2022/12/07 05:09:41;;;;;;;10.83;5.83;;;;;;;-1.14;100.00;100331.66;4934622;28;20233;-72
2022/12/07 05:12:07;;;;;;;10.93;6.57;;;;;;;-1.11;100.00;100328.28;4939416;28;20218;-72
2022/12/07 05:14:34;;;;;;;11.70;6.43;;;;;;;-1.13;100.00;100324.84;4939453;28;20203;-72
2022/12/07 05:17:00;;;;;;;9.17;5.47;;;;;;;-1.10;100.00;100323.19;4934842;28;20426;-72
2022/12/07 05:19:27;;;;;;;16.30;6.67;;;;;;;-1.08;100.00;100321.53;4940608;28;20767;-72
2022/12/07 05:21:54;;;;;;;13.83;6.67;;;;;;;-1.04;100.00;100314.75;4938427;28;20670;-72
2022/12/07 05:24:20;;;;;;;14.70;7.43;;;;;;;-1.01;100.00;100320.78;4952259;28;20219;-72
2022/12/07 05:26:48;;;;;;;12.40;7.13;;;;;;;-0.94;100.00;100313.22;4940431;28;20565;-72
2022/12/07 05:29:16;;;;;;;13.80;6.83;;;;;;;-0.94;100.00;100318.34;4936852;28;20767;-72
2022/12/07 05:31:44;;;;;;;14.50;6.93;;;;;;;-0.89;100.00;100312.44;4936517;28;20207;-72
2022/12/07 05:34:10;;;;;;;16.93;7.63;;;;;;;-0.85;100.00;100308.22;4942990;28;20211;-72
2022/12/07 05:36:37;;;;;;;17.50;8.20;;;;;;;-0.81;100.00;100302.31;4939388;28;20576;-71
2022/12/07 05:39:03;;;;;;;17.77;8.50;;;;;;;-0.77;100.00;100298.97;4939153;28;20230;-72
2022/12/07 05:44:15;;;;;;;16.80;7.67;;;;;;;-0.69;100.00;100291.41;4937816;28;20694;-72
2022/12/07 05:46:42;;;;;;;19.83;9.60;;;;;;;-0.67;100.00;100298.28;4942960;28;20207;-72
2022/12/07 05:49:08;;;;;;;19.87;9.27;;;;;;;-0.64;100.00;100288.06;4938794;28;20710;-72
2022/12/07 05:51:34;;;;;;;17.93;8.30;;;;;;;-0.60;100.00;100292.41;4937598;28;20468;-72
2022/12/07 05:54:02;;;;;;;18.80;8.73;;;;;;;-0.57;100.00;100289.84;4936590;28;20190;-72
2022/12/07 05:56:29;;;;;;;18.37;8.87;;;;;;;-0.54;100.00;100290.75;4938125;28;20210;-72
2022/12/07 06:01:40;;;;;;;20.03;9.77;;;;;;;-0.49;100.00;100283.97;4936368;28;20590;-72
2022/12/07 06:04:07;;;;;;;19.77;9.57;;;;;;;-0.46;100.00;100289.16;4946838;28;20214;-72
2022/12/07 06:06:33;;;;;;;17.00;9.33;;;;;;;-0.43;100.00;100284.94;4931781;28;20733;-72
2022/12/07 06:09:00;;;;;;;18.37;9.03;;;;;;;-0.42;100.00;100278.97;4933535;28;20740;-72
2022/12/07 06:14:10;;;;;;;18.03;9.60;;;;;;;-0.34;100.00;100270.53;4952042;28;20191;-72
2022/12/07 06:16:37;;;;;;;20.37;8.83;;;;;;;-0.32;100.00;100268.84;4936536;28;20617;-72
2022/12/07 06:19:05;;;;;;;20.17;9.37;;;;;;;-0.30;100.00;100270.59;4940484;28;20229;-72
2022/12/07 06:21:31;;;;;;;17.80;9.40;;;;;;;-0.26;100.00;100267.22;4938590;28;20578;-72
2022/12/07 06:23:57;;;;;;;18.13;8.97;;;;;;;-0.24;100.00;100272.38;4936137;28;20213;-72
2022/12/07 06:26:24;;;;;;;21.10;9.17;;;;;;;-0.25;100.00;100266.34;4938325;28;20202;-72
2022/12/07 06:28:50;;;;;;;16.53;9.20;;;;;;;-0.27;100.00;100268.03;4937951;28;20214;-73
2022/12/07 06:31:16;;;;;;;19.87;8.80;;;;;;;-0.26;100.00;100262.09;4946472;28;20411;-72
2022/12/07 06:33:43;;;;;;;18.87;8.57;;;;;;;-0.25;100.00;100256.09;4936571;28;20261;-72
2022/12/07 06:36:11;;;;;;;17.30;9.77;;;;;;;-0.22;100.00;100260.44;4935159;28;20205;-72
2022/12/07 06:38:38;;;;;;;15.90;8.57;;;;;;;-0.20;100.00;100263.88;4935052;28;20557;-72
2022/12/07 06:41:04;;;;;;;20.13;9.07;;;;;;;-0.22;100.00;100263.00;4932546;28;20592;-72
2022/12/07 06:43:31;;;;;;;20.60;9.07;;;;;;;-0.21;100.00;100260.44;4937352;28;20569;-72
2022/12/07 06:45:57;;;;;;;20.37;9.53;;;;;;;-0.24;100.00;100262.13;4932978;28;20238;-72
2022/12/07 06:48:23;;;;;;;19.83;10.17;;;;;;;-0.27;100.00;100262.91;4937687;28;20214;-73
2022/12/07 06:50:50;;;;;;;18.77;9.23;;;;;;;-0.29;100.00;100256.91;4936283;28;20226;-72
2022/12/07 06:53:18;;;;;;;18.27;9.70;;;;;;;-0.29;100.00;100256.91;4935224;28;20381;-72
2022/12/07 06:55:44;;;;;;;21.10;9.93;;;;;;;-0.28;100.00;100258.66;4930637;28;20194;-72
2022/12/07 06:58:10;;;;;;;18.87;9.67;;;;;;;-0.29;100.00;100256.91;4939793;28;20206;-72
2022/12/07 07:00:37;;;;;;;19.13;9.03;;;;;;;-0.29;100.00;100259.47;4939804;28;20514;-73
2022/12/07 07:03:03;;;;;;;18.83;9.60;;;;;;;-0.28;100.00;100255.22;4936795;28;20617;-72
2022/12/07 07:05:29;;;;;;;16.60;8.33;;;;;;;-0.28;100.00;100253.53;4941464;28;20238;-72
2022/12/07 07:07:56;;;;;;;17.57;8.73;;;;;;;-0.27;100.00;100259.50;4935029;28;20947;-72
2022/12/07 07:10:24;;;;;;;14.60;8.13;;;;;;;-0.27;100.00;100255.22;4945448;28;20314;-72
2022/12/07 07:12:50;;;;;;;15.30;7.67;;;;;;;-0.28;100.00;100255.22;4936246;28;20218;-72
2022/12/07 07:15:17;;;;;;;13.23;7.77;;;;;;;-0.26;100.00;100258.69;4936065;28;20253;-72
2022/12/07 07:17:43;;;;;;;17.07;8.63;;;;;;;-0.25;100.00;100252.69;4945532;28;20202;-72
2022/12/07 07:20:11;;;;;;;13.97;8.10;;;;;;;-0.24;100.00;100255.28;4935925;28;20215;-72
2022/12/07 07:22:37;;;;;;;15.87;8.17;;;;;;;-0.21;100.00;100255.31;4944203;28;20209;-72
2022/12/07 07:25:04;;;;;;;13.07;7.63;;;;;;;-0.20;100.00;100257.03;4933900;28;20695;-72
2022/12/07 07:27:32;;;;;;;13.50;7.30;;;;;;;-0.15;100.00;100256.25;4936907;28;20210;-72
2022/12/07 07:29:58;;;;;;;16.33;8.97;;;;;;;-0.14;100.00;100247.69;4941238;28;20226;-72
2022/12/07 07:32:25;;;;;;;14.53;8.03;;;;;;;-0.12;100.00;100243.44;4939868;28;20214;-72
2022/12/07 07:34:51;;;;;;;16.03;7.77;;;;;;;-0.10;100.00;100249.47;4949589;28;20203;-72
2022/12/07 07:37:17;;;;;;;16.03;8.73;;;;;;;-0.07;100.00;100234.97;4942319;28;20206;-72
2022/12/07 07:39:44;;;;;;;14.07;8.17;;;;;;;-0.07;100.00;100240.09;4942410;28;20261;-72
2022/12/07 07:42:10;;;;;;;17.80;8.83;;;;;;;-0.03;100.00;100236.72;4944594;28;20292;-72
2022/12/07 07:44:39;;;;;;;15.77;8.43;;;;;;;0.01;100.00;100239.31;4948058;28;20281;-72
2022/12/07 07:47:06;;;;;;;13.73;7.63;;;;;;;0.03;100.00;100237.63;4948696;28;20203;-72
2022/12/07 07:49:32;;;;;;;17.40;8.50;;;;;;;0.04;100.00;100237.66;4947153;28;20316;-72
2022/12/07 07:51:59;;;;;;;13.87;7.70;;;;;;;0.06;100.00;100237.69;4948130;28;20295;-72
2022/12/07 07:54:25;;;;;;;15.03;8.73;;;;;;;0.09;100.00;100230.88;4943397;28;20257;-72
2022/12/07 07:56:53;;;;;;;12.93;8.07;;;;;;;0.10;100.00;100237.69;4949021;28;20203;-72
2022/12/07 07:59:19;;;;;;;14.80;8.73;;;;;;;0.12;100.00;100232.59;4957389;28;20238;-72
2022/12/07 08:01:47;;;;;;;15.90;8.63;;;;;;;0.16;100.00;100239.50;4960226;28;20671;-72
2022/12/07 08:04:13;;;;;;;18.50;9.10;;;;;;;0.19;100.00;100234.38;4944139;28;20206;-71
2022/12/07 08:06:41;;;;;;;15.13;8.23;;;;;;;0.20;100.00;100242.94;4966720;28;20215;-72
2022/12/07 08:09:08;;;;;;;14.07;8.47;;;;;;;0.22;100.00;100248.94;4956891;28;20229;-72
2022/12/07 08:11:34;;;;;;;17.67;8.63;;;;;;;0.24;100.00;100245.53;4954466;28;20207;-72
2022/12/07 08:14:01;;;;;;;19.40;8.70;;;;;;;0.27;100.00;100248.16;4947460;28;20208;-72
2022/12/07 08:16:27;;;;;;;17.83;8.47;;;;;;;0.30;100.00;100248.19;4950149;28;20206;-72
2022/12/07 08:18:56;;;;;;;16.83;8.90;;;;;;;0.34;100.00;100242.22;4957418;28;20223;-72
2022/12/07 08:21:22;;;;;;;15.13;8.73;;;;;;;0.38;100.00;100241.41;4947925;28;20218;-72
2022/12/07 08:23:48;;;;;;;12.90;8.27;;;;;;;0.43;100.00;100241.44;4957761;28;20217;-72
2022/12/07 08:26:17;;;;;;;17.13;8.90;;;;;;;0.43;100.00;100244.00;4951472;28;20211;-72
2022/12/07 08:28:45;;;;;;;16.50;7.93;;;;;;;0.47;100.00;100237.22;4952642;28;20308;-72
2022/12/07 08:31:14;;;;;;;17.73;10.03;;;;;;;0.49;100.00;100236.41;4938985;28;20198;-72
2022/12/07 08:33:41;;;;;;;18.97;9.37;;;;;;;0.51;100.00;100237.25;4939067;28;20213;-72
2022/12/07 08:36:11;;;;;;;17.17;9.60;;;;;;;0.53;100.00;100239.84;4952804;28;20264;-72
2022/12/07 08:38:38;;;;;;;15.80;8.63;;;;;;;0.54;100.00;100237.25;4956183;28;20703;-72
2022/12/07 08:41:05;;;;;;;17.83;9.40;;;;;;;0.57;100.00;100246.72;4954594;28;20736;-72
2022/12/07 08:43:33;;;;;;;16.87;9.23;;;;;;;0.60;100.00;100249.31;4961846;28;20214;-72
2022/12/07 08:46:07;;;;;;;17.40;9.13;;;;;;;0.64;100.00;100240.78;4945255;28;20237;-72
2022/12/07 08:48:36;;;;;;;15.93;8.90;;;;;;;0.69;100.00;100236.53;4942072;28;20229;-72
2022/12/07 08:51:03;;;;;;;13.57;8.30;;;;;;;0.75;100.00;100241.72;4951454;28;20824;-72
2022/12/07 08:53:31;;;;;;;19.57;9.80;;;;;;;0.80;100.00;100240.91;4941743;28;20235;-72
2022/12/07 08:55:58;;;;;;;17.07;9.57;;;;;;;0.84;100.00;100240.91;4949312;28;20202;-72
2022/12/07 08:58:25;;;;;;;17.70;10.00;;;;;;;0.87;100.00;100240.94;4944519;28;20257;-72
2022/12/07 09:00:51;;;;;;;16.10;9.23;;;;;;;0.92;100.00;100241.84;4948993;28;20583;-72
2022/12/07 09:03:17;;;;;;;16.27;9.13;;;;;;;0.91;100.00;100244.41;4942903;28;20578;-72
2022/12/07 09:05:44;;;;;;;17.03;9.50;;;;;;;0.88;100.00;100241.81;4945988;28;20281;-72
2022/12/07 09:08:11;;;;;;;18.87;9.73;;;;;;;0.88;100.00;100234.97;4942267;28;20210;-72
2022/12/07 09:10:39;;;;;;;22.30;11.70;;;;;;;0.92;100.00;100238.44;4949614;28;20206;-72
2022/12/07 09:13:05;;;;;;;21.20;11.00;;;;;;;0.96;100.00;100237.59;4940285;28;20213;-72
2022/12/07 09:15:32;;;;;;;20.03;10.20;;;;;;;1.02;100.00;100247.91;4946665;28;20699;-72
2022/12/07 09:17:58;;;;;;;15.87;9.23;;;;;;;1.09;100.00;100241.09;4947641;28;20218;-73
2022/12/07 09:20:24;;;;;;;21.20;10.03;;;;;;;1.18;100.00;100242.84;4947186;28;20718;-72
2022/12/07 09:22:51;;;;;;;18.10;11.07;;;;;;;1.24;100.00;100236.06;4955127;28;20237;-72
2022/12/07 09:25:17;;;;;;;17.97;9.37;;;;;;;1.25;100.00;100236.91;4943283;28;20243;-72
2022/12/07 09:27:45;;;;;;;22.30;10.47;;;;;;;1.21;100.00;100241.16;4944840;28;20610;-72
2022/12/07 09:30:11;;;;;;;17.60;8.93;;;;;;;1.23;100.00;100239.50;4942519;28;20218;-72
2022/12/07 09:32:38;;;;;;;14.30;9.33;;;;;;;1.29;100.00;100243.81;4948792;28;20207;-72
2022/12/07 09:35:04;;;;;;;14.57;9.27;;;;;;;1.30;100.00;100245.50;4940314;28;20207;-72
2022/12/07 09:37:34;;;;;;;15.77;9.43;;;;;;;1.31;100.00;100237.81;4955134;28;20206;-72
2022/12/07 09:40:01;;;;;;;15.87;8.77;;;;;;;1.34;100.00;100236.97;4940133;28;20227;-72
2022/12/07 09:42:33;;;;;;;16.43;9.00;;;;;;;1.39;100.00;100229.28;4948036;28;20234;-72
2022/12/07 09:45:02;;;;;;;16.93;8.73;;;;;;;1.43;100.00;100226.75;4939644;28;20676;-72
2022/12/07 09:47:29;;;;;;;16.33;8.53;;;;;;;1.45;100.00;100224.19;4946779;28;20207;-71
2022/12/07 09:50:01;;;;;;;17.60;9.60;;;;;;;1.47;100.00;100220.75;4954803;28;20261;-72
2022/12/07 09:52:29;;;;;;;16.73;9.50;;;;;;;1.50;100.00;100225.06;4939665;28;20234;-71
2022/12/07 09:54:56;;;;;;;16.07;10.00;;;;;;;1.53;100.00;100225.09;4952437;28;20203;-71
2022/12/07 09:57:28;;;;;;;14.07;8.30;;;;;;;1.65;100.00;100222.56;4949065;28;20610;-71
2022/12/07 09:59:55;;;;;;;21.47;9.43;;;;;;;1.73;100.00;100214.88;4940288;28;20858;-71
2022/12/07 10:02:37;;;;;;;15.83;9.43;;;;;;;1.77;100.00;100224.31;4939872;28;20285;-71
2022/12/07 10:05:06;;;;;;;17.03;10.17;;;;;;;1.82;100.00;100226.91;4940717;28;20210;-72
2022/12/07 10:07:32;;;;;;;16.70;10.93;;;;;;;1.83;100.00;100216.63;4949410;28;20285;-71
2022/12/07 10:09:59;;;;;;;14.97;7.90;;;;;;;1.85;100.00;100217.47;4941302;28;20588;-71
2022/12/07 10:12:25;;;;;;;16.27;8.47;;;;;;;1.84;100.00;100230.31;4940836;28;20235;-71
2022/12/07 10:14:56;;;;;;;16.63;9.03;;;;;;;1.84;100.00;100215.75;4935762;28;20777;-71
2022/12/07 10:17:35;;;;;;;15.57;9.00;;;;;;;1.88;100.00;100222.63;4940117;28;20209;-71
2022/12/07 10:20:16;;;;;;;12.97;8.03;;;;;;;1.85;100.00;100220.06;4938314;28;20235;-71
2022/12/07 10:22:56;;;;;;;16.47;8.53;;;;;;;1.87;100.00;100214.91;4934259;28;20211;-71
2022/12/07 10:25:25;;;;;;;14.30;8.33;;;;;;;1.90;100.00;100214.94;4937475;28;20684;-71
2022/12/07 10:27:59;;;;;;;15.23;7.73;;;;;;;1.89;100.00;100210.63;4936309;28;20204;-71
2022/12/07 10:30:26;;;;;;;13.17;7.67;;;;;;;1.88;100.00;100216.63;4933140;28;20228;-71
2022/12/07 10:32:53;;;;;;;12.07;7.73;;;;;;;1.99;100.00;100216.69;4935627;28;20751;-71
2022/12/07 10:35:26;;;;;;;15.60;8.17;;;;;;;1.99;100.00;100220.09;4950912;28;20206;-72
2022/12/07 10:37:54;;;;;;;17.67;7.93;;;;;;;2.00;100.00;100220.94;4962464;28;20211;-71
2022/12/07 10:40:28;;;;;;;12.70;7.50;;;;;;;2.00;100.00;100223.50;4941927;28;20233;-71
2022/12/07 10:43:02;;;;;;;13.23;7.83;;;;;;;2.01;100.00;100223.53;4938383;28;20282;-71
2022/12/07 10:45:29;;;;;;;10.83;7.47;;;;;;;2.02;100.00;100221.81;4934265;28;20310;-71
2022/12/07 10:48:05;;;;;;;12.07;7.53;;;;;;;2.01;100.00;100228.66;4936706;28;20606;-71
2022/12/07 10:50:42;;;;;;;11.57;7.93;;;;;;;1.98;100.00;100222.66;4940633;28;20256;-70
2022/12/07 10:53:27;;;;;;;11.37;7.33;;;;;;;1.98;100.00;100222.66;4971201;28;20701;-74
2022/12/07 10:56:11;;;;;;;11.00;6.80;;;;;;;1.98;100.00;100223.50;4967609;28;20621;-73
2022/12/07 10:58:53;;;;;;;13.40;7.20;;;;;;;1.98;100.00;100232.94;4962371;28;20206;-72
2022/12/07 11:01:26;;;;;;;12.27;5.97;;;;;;;1.99;100.00;100229.53;4952662;28;20235;-73
2022/12/07 11:04:14;;;;;;;10.67;6.50;;;;;;;2.04;100.00;100220.09;4982201;28;20194;-73
2022/12/07 11:06:47;;;;;;;8.30;5.17;;;;;;;2.01;100.00;100227.81;4979357;28;20324;-73
2022/12/07 11:09:34;;;;;;;8.57;5.13;;;;;;;2.05;100.00;100217.53;5049621;28;20194;-72
2022/12/07 11:12:09;;;;;;;9.33;5.13;;;;;;;2.14;100.00;100226.13;4980255;28;20229;-73
2022/12/07 11:14:46;;;;;;;7.67;5.20;;;;;;;2.14;100.00;100219.25;4980875;28;20216;-71
2022/12/07 11:17:20;;;;;;;12.33;6.20;;;;;;;2.20;100.00;100227.00;4984699;28;20205;-73
2022/12/07 11:20:00;;;;;;;11.80;5.93;;;;;;;2.24;100.00;100226.13;4982283;28;20200;-73
2022/12/07 11:22:36;;;;;;;7.47;5.00;;;;;;;2.22;100.00;100225.28;4986926;28;20225;-72
2022/12/07 11:25:25;;;;;;;8.83;5.83;;;;;;;2.22;100.00;100229.56;4948911;28;20208;-73
2022/12/07 11:28:09;;;;;;;10.00;5.80;;;;;;;2.20;100.00;100228.69;4959658;28;20202;-73
2022/12/07 11:30:43;;;;;;;7.10;4.93;;;;;;;2.21;100.00;100233.84;4984596;28;20213;-74
2022/12/07 11:33:19;;;;;;;10.97;5.50;;;;;;;2.22;100.00;100225.28;4978817;28;20689;-73